sensor_id;sensor_type;location;lat;lon;timestamp;P1;durP1;ratioP1;P2;durP2;ratioP2
30970;SDS011;17651;52.262;10.498;2023-04-06T00:01:19;10.63;;;6.55;;
30970;SDS011;17651;52.262;10.498;2023-04-06T00:03:30;8.75;;;5.40;;
30970;SDS011;17651;52.262;10.498;2023-04-06T00:05:42;7.80;;;5.15;;
30970;SDS011;17651;52.262;10.498;2023-04-06T00:07:53;5.82;;;4.53;;
30970;SDS011;17651;52.262;10.498;2023-04-06T00:10:06;8.10;;;5.00;;
30970;SDS011;17651;52.262;10.498;2023-04-06T00:12:17;6.80;;;4.28;;
30970;SDS011;17651;52.262;10.498;2023-04-06T00:14:28;7.07;;;4.68;;
30970;SDS011;17651;52.262;10.498;2023-04-06T00:16:39;5.88;;;4.78;;
30970;SDS011;17651;52.262;10.498;2023-04-06T00:18:50;9.73;;;5.75;;
30970;SDS011;17651;52.262;10.498;2023-04-06T00:21:02;8.07;;;4.78;;
30970;SDS011;17651;52.262;10.498;2023-04-06T00:23:13;6.15;;;5.15;;
30970;SDS011;17651;52.262;10.498;2023-04-06T00:25:24;9.27;;;5.47;;
30970;SDS011;17651;52.262;10.498;2023-04-06T00:27:35;11.10;;;5.50;;
30970;SDS011;17651;52.262;10.498;2023-04-06T00:29:47;8.48;;;5.43;;
30970;SDS011;17651;52.262;10.498;2023-04-06T00:31:58;6.80;;;4.80;;
30970;SDS011;17651;52.262;10.498;2023-04-06T00:34:09;6.97;;;4.97;;
30970;SDS011;17651;52.262;10.498;2023-04-06T00:36:20;8.90;;;5.47;;
30970;SDS011;17651;52.262;10.498;2023-04-06T00:38:31;8.05;;;5.20;;
30970;SDS011;17651;52.262;10.498;2023-04-06T00:40:43;6.00;;;5.40;;
30970;SDS011;17651;52.262;10.498;2023-04-06T00:42:54;9.70;;;5.35;;
30970;SDS011;17651;52.262;10.498;2023-04-06T00:45:06;13.15;;;6.63;;
30970;SDS011;17651;52.262;10.498;2023-04-06T00:47:17;8.82;;;4.60;;
30970;SDS011;17651;52.262;10.498;2023-04-06T00:49:29;8.85;;;5.15;;
30970;SDS011;17651;52.262;10.498;2023-04-06T00:51:40;8.07;;;5.30;;
30970;SDS011;17651;52.262;10.498;2023-04-06T00:53:51;8.52;;;5.95;;
30970;SDS011;17651;52.262;10.498;2023-04-06T00:56:03;8.75;;;5.32;;
30970;SDS011;17651;52.262;10.498;2023-04-06T00:58:24;9.27;;;5.55;;
30970;SDS011;17651;52.262;10.498;2023-04-06T01:00:44;9.98;;;6.00;;
30970;SDS011;17651;52.262;10.498;2023-04-06T01:03:00;7.40;;;5.60;;
30970;SDS011;17651;52.262;10.498;2023-04-06T01:05:20;8.57;;;5.70;;
30970;SDS011;17651;52.262;10.498;2023-04-06T01:07:35;8.73;;;5.57;;
30970;SDS011;17651;52.262;10.498;2023-04-06T01:09:56;12.10;;;6.03;;
30970;SDS011;17651;52.262;10.498;2023-04-06T01:12:10;8.70;;;5.38;;
30970;SDS011;17651;52.262;10.498;2023-04-06T01:14:22;7.40;;;5.05;;
30970;SDS011;17651;52.262;10.498;2023-04-06T01:16:39;12.60;;;6.57;;
30970;SDS011;17651;52.262;10.498;2023-04-06T01:18:56;9.50;;;6.05;;
30970;SDS011;17651;52.262;10.498;2023-04-06T01:21:12;7.25;;;5.95;;
30970;SDS011;17651;52.262;10.498;2023-04-06T01:23:34;11.60;;;5.60;;
30970;SDS011;17651;52.262;10.498;2023-04-06T01:25:46;9.13;;;5.55;;
30970;SDS011;17651;52.262;10.498;2023-04-06T01:27:57;11.75;;;6.20;;
30970;SDS011;17651;52.262;10.498;2023-04-06T01:32:44;9.77;;;6.00;;
30970;SDS011;17651;52.262;10.498;2023-04-06T01:34:58;10.75;;;6.05;;
30970;SDS011;17651;52.262;10.498;2023-04-06T01:37:10;8.30;;;5.85;;
30970;SDS011;17651;52.262;10.498;2023-04-06T01:39:21;11.50;;;5.90;;
30970;SDS011;17651;52.262;10.498;2023-04-06T01:41:33;10.50;;;6.40;;
30970;SDS011;17651;52.262;10.498;2023-04-06T01:43:44;12.75;;;6.35;;
30970;SDS011;17651;52.262;10.498;2023-04-06T01:45:57;8.48;;;5.47;;
30970;SDS011;17651;52.262;10.498;2023-04-06T01:48:13;7.63;;;5.30;;
30970;SDS011;17651;52.262;10.498;2023-04-06T01:50:24;12.35;;;6.43;;
30970;SDS011;17651;52.262;10.498;2023-04-06T01:52:37;8.45;;;5.30;;
30970;SDS011;17651;52.262;10.498;2023-04-06T01:54:48;11.60;;;5.72;;
30970;SDS011;17651;52.262;10.498;2023-04-06T01:57:06;11.48;;;6.15;;
30970;SDS011;17651;52.262;10.498;2023-04-06T01:59:38;12.52;;;5.40;;
30970;SDS011;17651;52.262;10.498;2023-04-06T02:01:56;9.40;;;5.60;;
30970;SDS011;17651;52.262;10.498;2023-04-06T02:04:10;7.78;;;5.50;;
30970;SDS011;17651;52.262;10.498;2023-04-06T02:06:21;8.40;;;5.25;;
30970;SDS011;17651;52.262;10.498;2023-04-06T02:08:33;8.25;;;5.68;;
30970;SDS011;17651;52.262;10.498;2023-04-06T02:10:44;8.68;;;6.50;;
30970;SDS011;17651;52.262;10.498;2023-04-06T02:13:04;8.13;;;5.60;;
30970;SDS011;17651;52.262;10.498;2023-04-06T02:15:16;9.93;;;6.22;;
30970;SDS011;17651;52.262;10.498;2023-04-06T02:17:27;8.00;;;5.30;;
30970;SDS011;17651;52.262;10.498;2023-04-06T02:19:38;7.88;;;5.75;;
30970;SDS011;17651;52.262;10.498;2023-04-06T02:21:49;7.68;;;5.45;;
30970;SDS011;17651;52.262;10.498;2023-04-06T02:24:00;9.32;;;6.20;;
30970;SDS011;17651;52.262;10.498;2023-04-06T02:26:11;7.57;;;6.22;;
30970;SDS011;17651;52.262;10.498;2023-04-06T02:28:22;11.00;;;5.78;;
30970;SDS011;17651;52.262;10.498;2023-04-06T02:30:34;7.78;;;5.07;;
30970;SDS011;17651;52.262;10.498;2023-04-06T02:32:45;6.80;;;6.15;;
30970;SDS011;17651;52.262;10.498;2023-04-06T02:34:57;9.55;;;5.68;;
30970;SDS011;17651;52.262;10.498;2023-04-06T02:37:09;8.60;;;5.85;;
30970;SDS011;17651;52.262;10.498;2023-04-06T02:39:20;8.13;;;6.15;;
30970;SDS011;17651;52.262;10.498;2023-04-06T02:41:31;9.73;;;5.47;;
30970;SDS011;17651;52.262;10.498;2023-04-06T02:43:44;10.50;;;5.53;;
30970;SDS011;17651;52.262;10.498;2023-04-06T02:46:03;5.40;;;4.03;;
30970;SDS011;17651;52.262;10.498;2023-04-06T02:48:18;6.82;;;5.15;;
30970;SDS011;17651;52.262;10.498;2023-04-06T02:50:29;9.82;;;6.13;;
30970;SDS011;17651;52.262;10.498;2023-04-06T02:52:45;9.13;;;6.03;;
30970;SDS011;17651;52.262;10.498;2023-04-06T02:54:56;8.65;;;5.78;;
30970;SDS011;17651;52.262;10.498;2023-04-06T02:57:11;7.93;;;6.03;;
30970;SDS011;17651;52.262;10.498;2023-04-06T02:59:27;10.48;;;5.93;;
30970;SDS011;17651;52.262;10.498;2023-04-06T03:01:47;7.18;;;5.93;;
30970;SDS011;17651;52.262;10.498;2023-04-06T03:03:58;9.95;;;5.32;;
30970;SDS011;17651;52.262;10.498;2023-04-06T03:06:11;10.82;;;5.90;;
30970;SDS011;17651;52.262;10.498;2023-04-06T03:08:24;13.10;;;6.00;;
30970;SDS011;17651;52.262;10.498;2023-04-06T03:10:35;8.05;;;5.97;;
30970;SDS011;17651;52.262;10.498;2023-04-06T03:12:46;6.38;;;5.22;;
30970;SDS011;17651;52.262;10.498;2023-04-06T03:14:57;8.30;;;5.93;;
30970;SDS011;17651;52.262;10.498;2023-04-06T03:17:09;5.97;;;5.40;;
30970;SDS011;17651;52.262;10.498;2023-04-06T03:19:21;8.38;;;5.90;;
30970;SDS011;17651;52.262;10.498;2023-04-06T03:21:33;7.70;;;5.45;;
30970;SDS011;17651;52.262;10.498;2023-04-06T03:23:44;7.15;;;5.90;;
30970;SDS011;17651;52.262;10.498;2023-04-06T03:25:56;9.75;;;6.35;;
30970;SDS011;17651;52.262;10.498;2023-04-06T03:28:07;9.35;;;6.18;;
30970;SDS011;17651;52.262;10.498;2023-04-06T03:30:24;8.50;;;5.38;;
30970;SDS011;17651;52.262;10.498;2023-04-06T03:32:36;7.57;;;6.13;;
30970;SDS011;17651;52.262;10.498;2023-04-06T03:34:47;11.73;;;6.47;;
30970;SDS011;17651;52.262;10.498;2023-04-06T03:36:59;12.20;;;5.82;;
30970;SDS011;17651;52.262;10.498;2023-04-06T03:39:11;9.18;;;6.32;;
30970;SDS011;17651;52.262;10.498;2023-04-06T03:41:26;7.63;;;6.75;;
30970;SDS011;17651;52.262;10.498;2023-04-06T03:43:53;9.77;;;6.55;;
30970;SDS011;17651;52.262;10.498;2023-04-06T03:46:04;10.75;;;7.50;;
30970;SDS011;17651;52.262;10.498;2023-04-06T03:48:15;10.05;;;7.13;;
30970;SDS011;17651;52.262;10.498;2023-04-06T03:50:27;10.30;;;6.70;;
30970;SDS011;17651;52.262;10.498;2023-04-06T03:52:38;10.52;;;6.80;;
30970;SDS011;17651;52.262;10.498;2023-04-06T03:54:50;8.68;;;6.38;;
30970;SDS011;17651;52.262;10.498;2023-04-06T03:57:01;9.15;;;6.75;;
30970;SDS011;17651;52.262;10.498;2023-04-06T03:59:13;8.38;;;6.40;;
30970;SDS011;17651;52.262;10.498;2023-04-06T04:01:25;10.30;;;6.57;;
30970;SDS011;17651;52.262;10.498;2023-04-06T04:03:36;9.10;;;6.43;;
30970;SDS011;17651;52.262;10.498;2023-04-06T04:05:47;10.98;;;7.20;;
30970;SDS011;17651;52.262;10.498;2023-04-06T04:07:58;9.30;;;6.75;;
30970;SDS011;17651;52.262;10.498;2023-04-06T04:10:11;9.30;;;7.55;;
30970;SDS011;17651;52.262;10.498;2023-04-06T04:12:22;13.30;;;8.50;;
30970;SDS011;17651;52.262;10.498;2023-04-06T04:14:33;18.00;;;10.10;;
30970;SDS011;17651;52.262;10.498;2023-04-06T04:16:45;15.63;;;9.30;;
30970;SDS011;17651;52.262;10.498;2023-04-06T04:18:56;11.07;;;7.55;;
30970;SDS011;17651;52.262;10.498;2023-04-06T04:21:08;15.25;;;8.60;;
30970;SDS011;17651;52.262;10.498;2023-04-06T04:23:20;13.27;;;7.70;;
30970;SDS011;17651;52.262;10.498;2023-04-06T04:25:31;10.32;;;7.45;;
30970;SDS011;17651;52.262;10.498;2023-04-06T04:27:42;12.48;;;7.97;;
30970;SDS011;17651;52.262;10.498;2023-04-06T04:29:53;11.77;;;8.05;;
30970;SDS011;17651;52.262;10.498;2023-04-06T04:32:05;11.77;;;7.55;;
30970;SDS011;17651;52.262;10.498;2023-04-06T04:34:17;11.48;;;7.88;;
30970;SDS011;17651;52.262;10.498;2023-04-06T04:36:34;11.55;;;8.68;;
30970;SDS011;17651;52.262;10.498;2023-04-06T04:38:49;14.35;;;8.52;;
30970;SDS011;17651;52.262;10.498;2023-04-06T04:41:01;12.10;;;8.82;;
30970;SDS011;17651;52.262;10.498;2023-04-06T04:43:13;15.82;;;9.55;;
30970;SDS011;17651;52.262;10.498;2023-04-06T04:45:24;11.80;;;8.40;;
30970;SDS011;17651;52.262;10.498;2023-04-06T04:47:36;10.75;;;8.10;;
30970;SDS011;17651;52.262;10.498;2023-04-06T04:49:49;12.90;;;8.38;;
30970;SDS011;17651;52.262;10.498;2023-04-06T04:52:05;9.02;;;7.50;;
30970;SDS011;17651;52.262;10.498;2023-04-06T04:54:27;9.57;;;7.20;;
30970;SDS011;17651;52.262;10.498;2023-04-06T04:56:38;11.27;;;8.23;;
30970;SDS011;17651;52.262;10.498;2023-04-06T04:59:12;12.05;;;8.27;;
30970;SDS011;17651;52.262;10.498;2023-04-06T05:01:26;9.35;;;7.70;;
30970;SDS011;17651;52.262;10.498;2023-04-06T05:03:37;12.05;;;8.05;;
30970;SDS011;17651;52.262;10.498;2023-04-06T05:05:51;9.75;;;8.18;;
30970;SDS011;17651;52.262;10.498;2023-04-06T05:08:03;10.57;;;8.07;;
30970;SDS011;17651;52.262;10.498;2023-04-06T05:10:27;11.02;;;8.18;;
30970;SDS011;17651;52.262;10.498;2023-04-06T05:12:42;9.45;;;8.27;;
30970;SDS011;17651;52.262;10.498;2023-04-06T05:14:55;14.15;;;8.40;;
30970;SDS011;17651;52.262;10.498;2023-04-06T05:17:07;11.40;;;7.93;;
30970;SDS011;17651;52.262;10.498;2023-04-06T05:19:18;9.57;;;8.18;;
30970;SDS011;17651;52.262;10.498;2023-04-06T05:21:30;13.38;;;8.68;;
30970;SDS011;17651;52.262;10.498;2023-04-06T05:23:49;9.57;;;8.57;;
30970;SDS011;17651;52.262;10.498;2023-04-06T05:26:00;10.63;;;8.68;;
30970;SDS011;17651;52.262;10.498;2023-04-06T05:28:11;11.38;;;8.38;;
30970;SDS011;17651;52.262;10.498;2023-04-06T05:30:24;12.70;;;8.02;;
30970;SDS011;17651;52.262;10.498;2023-04-06T05:32:36;13.32;;;8.88;;
30970;SDS011;17651;52.262;10.498;2023-04-06T05:34:48;8.98;;;8.07;;
30970;SDS011;17651;52.262;10.498;2023-04-06T05:37:00;10.32;;;7.63;;
30970;SDS011;17651;52.262;10.498;2023-04-06T05:39:11;9.68;;;8.43;;
30970;SDS011;17651;52.262;10.498;2023-04-06T05:41:29;12.82;;;9.10;;
30970;SDS011;17651;52.262;10.498;2023-04-06T05:43:40;9.90;;;8.82;;
30970;SDS011;17651;52.262;10.498;2023-04-06T05:45:51;10.48;;;8.35;;
30970;SDS011;17651;52.262;10.498;2023-04-06T05:48:02;8.82;;;7.95;;
30970;SDS011;17651;52.262;10.498;2023-04-06T05:50:14;9.75;;;8.60;;
30970;SDS011;17651;52.262;10.498;2023-04-06T05:52:25;10.88;;;8.52;;
30970;SDS011;17651;52.262;10.498;2023-04-06T05:54:37;15.50;;;9.02;;
30970;SDS011;17651;52.262;10.498;2023-04-06T05:56:48;10.77;;;8.98;;
30970;SDS011;17651;52.262;10.498;2023-04-06T05:59:00;18.38;;;8.85;;
30970;SDS011;17651;52.262;10.498;2023-04-06T06:01:13;16.60;;;9.63;;
30970;SDS011;17651;52.262;10.498;2023-04-06T06:03:29;11.55;;;9.30;;
30970;SDS011;17651;52.262;10.498;2023-04-06T06:05:41;11.82;;;9.20;;
30970;SDS011;17651;52.262;10.498;2023-04-06T06:07:58;12.20;;;8.88;;
30970;SDS011;17651;52.262;10.498;2023-04-06T06:10:13;12.63;;;8.65;;
30970;SDS011;17651;52.262;10.498;2023-04-06T06:12:24;10.48;;;8.48;;
30970;SDS011;17651;52.262;10.498;2023-04-06T06:14:35;13.27;;;9.20;;
30970;SDS011;17651;52.262;10.498;2023-04-06T06:16:47;10.60;;;8.88;;
30970;SDS011;17651;52.262;10.498;2023-04-06T06:18:59;10.45;;;8.70;;
30970;SDS011;17651;52.262;10.498;2023-04-06T06:21:11;12.55;;;8.98;;
30970;SDS011;17651;52.262;10.498;2023-04-06T06:23:23;13.43;;;9.70;;
30970;SDS011;17651;52.262;10.498;2023-04-06T06:25:34;11.15;;;8.95;;
30970;SDS011;17651;52.262;10.498;2023-04-06T06:27:46;14.13;;;9.55;;
30970;SDS011;17651;52.262;10.498;2023-04-06T06:30:00;13.63;;;8.80;;
30970;SDS011;17651;52.262;10.498;2023-04-06T06:32:14;10.30;;;9.05;;
30970;SDS011;17651;52.262;10.498;2023-04-06T06:34:26;10.38;;;8.63;;
30970;SDS011;17651;52.262;10.498;2023-04-06T06:36:40;11.57;;;8.50;;
30970;SDS011;17651;52.262;10.498;2023-04-06T06:38:53;13.23;;;8.75;;
30970;SDS011;17651;52.262;10.498;2023-04-06T06:41:05;13.82;;;8.65;;
30970;SDS011;17651;52.262;10.498;2023-04-06T06:43:19;12.63;;;9.50;;
30970;SDS011;17651;52.262;10.498;2023-04-06T06:45:36;12.68;;;8.73;;
30970;SDS011;17651;52.262;10.498;2023-04-06T06:47:47;12.38;;;9.65;;
30970;SDS011;17651;52.262;10.498;2023-04-06T06:49:58;10.98;;;8.98;;
30970;SDS011;17651;52.262;10.498;2023-04-06T06:52:09;14.95;;;8.75;;
30970;SDS011;17651;52.262;10.498;2023-04-06T06:54:21;13.02;;;9.27;;
30970;SDS011;17651;52.262;10.498;2023-04-06T06:56:32;14.38;;;9.10;;
30970;SDS011;17651;52.262;10.498;2023-04-06T06:58:46;12.20;;;8.68;;
30970;SDS011;17651;52.262;10.498;2023-04-06T07:00:57;10.82;;;8.50;;
30970;SDS011;17651;52.262;10.498;2023-04-06T07:03:10;11.88;;;9.02;;
30970;SDS011;17651;52.262;10.498;2023-04-06T07:05:21;9.60;;;8.52;;
30970;SDS011;17651;52.262;10.498;2023-04-06T07:07:33;13.45;;;9.27;;
30970;SDS011;17651;52.262;10.498;2023-04-06T07:09:44;10.82;;;8.50;;
30970;SDS011;17651;52.262;10.498;2023-04-06T07:11:55;10.73;;;9.05;;
30970;SDS011;17651;52.262;10.498;2023-04-06T07:14:06;11.23;;;8.65;;
30970;SDS011;17651;52.262;10.498;2023-04-06T07:16:18;12.27;;;8.55;;
30970;SDS011;17651;52.262;10.498;2023-04-06T07:18:29;10.48;;;8.13;;
30970;SDS011;17651;52.262;10.498;2023-04-06T07:20:40;9.90;;;8.30;;
30970;SDS011;17651;52.262;10.498;2023-04-06T07:22:51;11.00;;;8.88;;
30970;SDS011;17651;52.262;10.498;2023-04-06T07:25:02;13.25;;;8.63;;
30970;SDS011;17651;52.262;10.498;2023-04-06T07:27:14;11.95;;;8.77;;
30970;SDS011;17651;52.262;10.498;2023-04-06T07:29:27;10.73;;;8.40;;
30970;SDS011;17651;52.262;10.498;2023-04-06T07:31:38;10.35;;;8.32;;
30970;SDS011;17651;52.262;10.498;2023-04-06T07:33:49;11.45;;;8.57;;
30970;SDS011;17651;52.262;10.498;2023-04-06T07:36:02;9.98;;;8.02;;
30970;SDS011;17651;52.262;10.498;2023-04-06T07:38:13;9.60;;;7.72;;
30970;SDS011;17651;52.262;10.498;2023-04-06T07:40:25;9.00;;;8.05;;
30970;SDS011;17651;52.262;10.498;2023-04-06T07:42:37;10.63;;;7.63;;
30970;SDS011;17651;52.262;10.498;2023-04-06T07:44:50;10.57;;;8.00;;
30970;SDS011;17651;52.262;10.498;2023-04-06T07:47:01;9.93;;;7.53;;
30970;SDS011;17651;52.262;10.498;2023-04-06T07:49:13;12.43;;;7.95;;
30970;SDS011;17651;52.262;10.498;2023-04-06T07:51:24;11.05;;;7.93;;
30970;SDS011;17651;52.262;10.498;2023-04-06T07:53:35;10.95;;;8.50;;
30970;SDS011;17651;52.262;10.498;2023-04-06T07:55:46;9.98;;;7.75;;
30970;SDS011;17651;52.262;10.498;2023-04-06T07:57:58;10.25;;;7.78;;
30970;SDS011;17651;52.262;10.498;2023-04-06T08:00:09;8.10;;;7.17;;
30970;SDS011;17651;52.262;10.498;2023-04-06T08:02:23;10.13;;;8.25;;
30970;SDS011;17651;52.262;10.498;2023-04-06T08:04:35;8.75;;;7.20;;
30970;SDS011;17651;52.262;10.498;2023-04-06T08:06:46;12.68;;;7.78;;
30970;SDS011;17651;52.262;10.498;2023-04-06T08:08:57;12.32;;;7.30;;
30970;SDS011;17651;52.262;10.498;2023-04-06T08:11:08;10.20;;;7.53;;
30970;SDS011;17651;52.262;10.498;2023-04-06T08:13:19;10.15;;;7.35;;
30970;SDS011;17651;52.262;10.498;2023-04-06T08:15:31;11.85;;;8.02;;
30970;SDS011;17651;52.262;10.498;2023-04-06T08:17:42;12.75;;;9.27;;
30970;SDS011;17651;52.262;10.498;2023-04-06T08:19:53;9.55;;;8.10;;
30970;SDS011;17651;52.262;10.498;2023-04-06T08:22:04;12.45;;;7.93;;
30970;SDS011;17651;52.262;10.498;2023-04-06T08:24:15;9.15;;;7.30;;
30970;SDS011;17651;52.262;10.498;2023-04-06T08:26:26;9.52;;;7.10;;
30970;SDS011;17651;52.262;10.498;2023-04-06T08:28:38;10.43;;;7.72;;
30970;SDS011;17651;52.262;10.498;2023-04-06T08:30:49;10.70;;;7.93;;
30970;SDS011;17651;52.262;10.498;2023-04-06T08:33:00;9.80;;;6.97;;
30970;SDS011;17651;52.262;10.498;2023-04-06T08:35:11;9.40;;;7.57;;
30970;SDS011;17651;52.262;10.498;2023-04-06T08:37:23;11.75;;;7.85;;
30970;SDS011;17651;52.262;10.498;2023-04-06T08:39:34;10.05;;;7.03;;
30970;SDS011;17651;52.262;10.498;2023-04-06T08:41:45;11.98;;;7.82;;
30970;SDS011;17651;52.262;10.498;2023-04-06T08:43:57;10.27;;;7.53;;
30970;SDS011;17651;52.262;10.498;2023-04-06T08:46:08;11.10;;;7.00;;
30970;SDS011;17651;52.262;10.498;2023-04-06T08:48:20;9.07;;;6.85;;
30970;SDS011;17651;52.262;10.498;2023-04-06T08:50:32;13.20;;;8.52;;
30970;SDS011;17651;52.262;10.498;2023-04-06T08:52:44;11.18;;;8.07;;
30970;SDS011;17651;52.262;10.498;2023-04-06T08:54:57;11.48;;;8.73;;
30970;SDS011;17651;52.262;10.498;2023-04-06T08:57:08;14.52;;;8.93;;
30970;SDS011;17651;52.262;10.498;2023-04-06T08:59:20;10.07;;;7.93;;
30970;SDS011;17651;52.262;10.498;2023-04-06T09:01:31;11.55;;;8.55;;
30970;SDS011;17651;52.262;10.498;2023-04-06T09:03:44;9.40;;;7.68;;
30970;SDS011;17651;52.262;10.498;2023-04-06T09:05:57;11.32;;;7.35;;
30970;SDS011;17651;52.262;10.498;2023-04-06T09:08:09;13.23;;;8.82;;
30970;SDS011;17651;52.262;10.498;2023-04-06T09:10:20;12.02;;;8.88;;
30970;SDS011;17651;52.262;10.498;2023-04-06T09:12:34;38.33;;;19.63;;
30970;SDS011;17651;52.262;10.498;2023-04-06T09:14:45;14.98;;;10.57;;
30970;SDS011;17651;52.262;10.498;2023-04-06T09:16:56;11.18;;;8.35;;
30970;SDS011;17651;52.262;10.498;2023-04-06T09:19:08;12.77;;;8.77;;
30970;SDS011;17651;52.262;10.498;2023-04-06T09:21:19;12.18;;;8.23;;
30970;SDS011;17651;52.262;10.498;2023-04-06T09:23:30;11.48;;;8.50;;
30970;SDS011;17651;52.262;10.498;2023-04-06T09:25:42;11.98;;;8.98;;
30970;SDS011;17651;52.262;10.498;2023-04-06T09:28:03;10.95;;;8.18;;
30970;SDS011;17651;52.262;10.498;2023-04-06T09:30:14;13.27;;;8.73;;
30970;SDS011;17651;52.262;10.498;2023-04-06T09:32:26;31.88;;;18.33;;
30970;SDS011;17651;52.262;10.498;2023-04-06T09:34:38;20.30;;;11.57;;
30970;SDS011;17651;52.262;10.498;2023-04-06T09:36:49;12.55;;;8.50;;
30970;SDS011;17651;52.262;10.498;2023-04-06T09:39:02;12.88;;;8.60;;
30970;SDS011;17651;52.262;10.498;2023-04-06T09:41:20;11.98;;;8.25;;
30970;SDS011;17651;52.262;10.498;2023-04-06T09:43:31;12.88;;;8.77;;
30970;SDS011;17651;52.262;10.498;2023-04-06T09:45:42;16.50;;;9.15;;
30970;SDS011;17651;52.262;10.498;2023-04-06T09:47:53;11.93;;;7.80;;
30970;SDS011;17651;52.262;10.498;2023-04-06T09:50:06;13.13;;;8.18;;
30970;SDS011;17651;52.262;10.498;2023-04-06T09:52:18;11.70;;;7.80;;
30970;SDS011;17651;52.262;10.498;2023-04-06T09:54:31;9.48;;;6.82;;
30970;SDS011;17651;52.262;10.498;2023-04-06T09:56:45;11.15;;;7.93;;
30970;SDS011;17651;52.262;10.498;2023-04-06T09:59:01;10.93;;;8.18;;
30970;SDS011;17651;52.262;10.498;2023-04-06T10:01:15;14.40;;;8.25;;
30970;SDS011;17651;52.262;10.498;2023-04-06T10:05:40;12.30;;;7.85;;
30970;SDS011;17651;52.262;10.498;2023-04-06T10:07:53;11.00;;;8.25;;
30970;SDS011;17651;52.262;10.498;2023-04-06T10:10:06;12.68;;;7.93;;
30970;SDS011;17651;52.262;10.498;2023-04-06T10:12:18;13.05;;;8.63;;
30970;SDS011;17651;52.262;10.498;2023-04-06T10:14:31;12.20;;;8.48;;
30970;SDS011;17651;52.262;10.498;2023-04-06T10:16:42;11.55;;;7.80;;
30970;SDS011;17651;52.262;10.498;2023-04-06T10:18:58;10.82;;;7.63;;
30970;SDS011;17651;52.262;10.498;2023-04-06T10:21:12;11.70;;;7.60;;
30970;SDS011;17651;52.262;10.498;2023-04-06T10:23:33;19.25;;;8.07;;
30970;SDS011;17651;52.262;10.498;2023-04-06T10:25:52;12.50;;;8.30;;
30970;SDS011;17651;52.262;10.498;2023-04-06T10:28:07;11.57;;;8.07;;
30970;SDS011;17651;52.262;10.498;2023-04-06T10:30:19;14.63;;;7.82;;
30970;SDS011;17651;52.262;10.498;2023-04-06T10:34:45;11.02;;;7.43;;
30970;SDS011;17651;52.262;10.498;2023-04-06T10:36:56;12.75;;;8.55;;
30970;SDS011;17651;52.262;10.498;2023-04-06T10:39:08;9.55;;;7.30;;
30970;SDS011;17651;52.262;10.498;2023-04-06T10:41:19;11.15;;;7.95;;
30970;SDS011;17651;52.262;10.498;2023-04-06T10:43:32;17.70;;;8.13;;
30970;SDS011;17651;52.262;10.498;2023-04-06T10:45:45;12.52;;;7.10;;
30970;SDS011;17651;52.262;10.498;2023-04-06T10:50:16;12.45;;;7.53;;
30970;SDS011;17651;52.262;10.498;2023-04-06T10:52:28;12.00;;;8.00;;
30970;SDS011;17651;52.262;10.498;2023-04-06T10:54:41;11.70;;;7.70;;
30970;SDS011;17651;52.262;10.498;2023-04-06T10:56:54;12.75;;;7.78;;
30970;SDS011;17651;52.262;10.498;2023-04-06T10:59:06;13.32;;;8.85;;
30970;SDS011;17651;52.262;10.498;2023-04-06T11:01:18;10.15;;;7.68;;
30970;SDS011;17651;52.262;10.498;2023-04-06T11:03:31;11.40;;;8.20;;
30970;SDS011;17651;52.262;10.498;2023-04-06T11:05:48;12.85;;;7.70;;
30970;SDS011;17651;52.262;10.498;2023-04-06T11:07:59;15.65;;;10.57;;
30970;SDS011;17651;52.262;10.498;2023-04-06T11:10:10;13.95;;;8.93;;
30970;SDS011;17651;52.262;10.498;2023-04-06T11:12:25;11.75;;;7.63;;
30970;SDS011;17651;52.262;10.498;2023-04-06T11:14:36;13.82;;;8.23;;
30970;SDS011;17651;52.262;10.498;2023-04-06T11:16:49;13.32;;;8.27;;
30970;SDS011;17651;52.262;10.498;2023-04-06T11:19:01;10.13;;;7.32;;
30970;SDS011;17651;52.262;10.498;2023-04-06T11:21:12;13.18;;;7.53;;
30970;SDS011;17651;52.262;10.498;2023-04-06T11:23:23;11.85;;;7.80;;
30970;SDS011;17651;52.262;10.498;2023-04-06T11:25:35;11.07;;;7.65;;
30970;SDS011;17651;52.262;10.498;2023-04-06T11:27:46;11.52;;;7.82;;
30970;SDS011;17651;52.262;10.498;2023-04-06T11:29:59;10.48;;;7.22;;
30970;SDS011;17651;52.262;10.498;2023-04-06T11:32:10;43.78;;;23.88;;
30970;SDS011;17651;52.262;10.498;2023-04-06T11:34:22;20.70;;;12.40;;
30970;SDS011;17651;52.262;10.498;2023-04-06T11:36:33;13.95;;;7.93;;
30970;SDS011;17651;52.262;10.498;2023-04-06T11:38:46;14.02;;;7.35;;
30970;SDS011;17651;52.262;10.498;2023-04-06T11:40:58;11.77;;;6.95;;
30970;SDS011;17651;52.262;10.498;2023-04-06T11:43:10;11.82;;;7.50;;
30970;SDS011;17651;52.262;10.498;2023-04-06T11:45:22;10.48;;;6.68;;
30970;SDS011;17651;52.262;10.498;2023-04-06T11:47:34;10.75;;;7.18;;
30970;SDS011;17651;52.262;10.498;2023-04-06T11:49:45;10.02;;;6.70;;
30970;SDS011;17651;52.262;10.498;2023-04-06T11:51:58;11.32;;;7.47;;
30970;SDS011;17651;52.262;10.498;2023-04-06T11:54:09;8.93;;;6.50;;
30970;SDS011;17651;52.262;10.498;2023-04-06T11:56:38;9.25;;;6.55;;
30970;SDS011;17651;52.262;10.498;2023-04-06T11:58:49;10.25;;;6.85;;
30970;SDS011;17651;52.262;10.498;2023-04-06T12:01:04;11.57;;;7.70;;
30970;SDS011;17651;52.262;10.498;2023-04-06T12:03:15;10.80;;;6.47;;
30970;SDS011;17651;52.262;10.498;2023-04-06T12:05:26;8.88;;;7.18;;
30970;SDS011;17651;52.262;10.498;2023-04-06T12:07:37;13.43;;;7.50;;
30970;SDS011;17651;52.262;10.498;2023-04-06T12:09:48;12.50;;;6.88;;
30970;SDS011;17651;52.262;10.498;2023-04-06T12:12:00;13.40;;;10.40;;
30970;SDS011;17651;52.262;10.498;2023-04-06T12:14:11;17.45;;;11.30;;
30970;SDS011;17651;52.262;10.498;2023-04-06T12:16:22;8.73;;;7.72;;
30970;SDS011;17651;52.262;10.498;2023-04-06T12:18:34;11.18;;;7.97;;
30970;SDS011;17651;52.262;10.498;2023-04-06T12:20:45;9.98;;;6.80;;
30970;SDS011;17651;52.262;10.498;2023-04-06T12:22:56;11.35;;;7.35;;
30970;SDS011;17651;52.262;10.498;2023-04-06T12:25:07;9.32;;;6.45;;
30970;SDS011;17651;52.262;10.498;2023-04-06T12:27:19;10.52;;;7.25;;
30970;SDS011;17651;52.262;10.498;2023-04-06T12:29:30;7.63;;;6.30;;
30970;SDS011;17651;52.262;10.498;2023-04-06T12:31:41;12.55;;;7.20;;
30970;SDS011;17651;52.262;10.498;2023-04-06T12:33:54;10.93;;;7.22;;
30970;SDS011;17651;52.262;10.498;2023-04-06T12:36:11;11.55;;;7.40;;
30970;SDS011;17651;52.262;10.498;2023-04-06T12:38:22;7.97;;;6.75;;
30970;SDS011;17651;52.262;10.498;2023-04-06T12:40:37;9.90;;;6.88;;
30970;SDS011;17651;52.262;10.498;2023-04-06T12:42:48;7.75;;;6.20;;
30970;SDS011;17651;52.262;10.498;2023-04-06T12:44:59;9.38;;;5.82;;
30970;SDS011;17651;52.262;10.498;2023-04-06T12:47:11;8.98;;;5.85;;
30970;SDS011;17651;52.262;10.498;2023-04-06T12:49:22;10.52;;;6.93;;
30970;SDS011;17651;52.262;10.498;2023-04-06T12:51:33;7.93;;;6.32;;
30970;SDS011;17651;52.262;10.498;2023-04-06T12:53:44;7.65;;;5.93;;
30970;SDS011;17651;52.262;10.498;2023-04-06T12:55:56;7.32;;;6.18;;
30970;SDS011;17651;52.262;10.498;2023-04-06T12:58:07;7.85;;;6.30;;
30970;SDS011;17651;52.262;10.498;2023-04-06T13:00:18;11.10;;;5.95;;
30970;SDS011;17651;52.262;10.498;2023-04-06T13:02:30;7.15;;;5.80;;
30970;SDS011;17651;52.262;10.498;2023-04-06T13:04:41;8.32;;;6.70;;
30970;SDS011;17651;52.262;10.498;2023-04-06T13:06:53;9.18;;;5.82;;
30970;SDS011;17651;52.262;10.498;2023-04-06T13:09:04;8.30;;;6.50;;